Time;durP1;ratioP1;P1;durP2;ratioP2;P2;SDS_P1;SDS_P2;PMS_P1;PMS_P2;Temp;Humidity;BMP_temperature;BMP_pressure;BME280_temperature;BME280_humidity;BME280_pressure;Samples;Min_cycle;Max_cycle;Signal;HPM_P1;HPM_P2
2022/01/07 00:02:26;;;;;;;25.20;15.10;;;;;;;4.86;87.79;96987.13;4932193;29;20870;-82
2022/01/07 00:04:54;;;;;;;23.93;15.10;;;;;;;4.77;87.33;96951.47;4931385;29;20601;-83
2022/01/07 00:07:21;;;;;;;24.83;14.27;;;;;;;4.82;86.11;96964.19;4961200;28;20641;-82
2022/01/07 00:09:48;;;;;;;29.73;14.73;;;;;;;4.86;87.19;96994.84;4970480;28;20200;-82
2022/01/07 00:12:19;;;;;;;25.10;13.37;;;;;;;4.90;87.45;96993.06;4971073;28;20208;-83
2022/01/07 00:14:46;;;;;;;23.80;14.70;;;;;;;4.74;86.57;96963.53;4919189;29;20198;-82
2022/01/07 00:17:13;;;;;;;24.63;15.13;;;;;;;4.42;87.11;96912.16;4971263;28;20198;-84
2022/01/07 00:19:40;;;;;;;27.97;15.47;;;;;;;4.80;87.55;97010.38;4950574;29;20727;-83
2022/01/07 00:22:08;;;;;;;25.57;15.67;;;;;;;4.71;87.31;96971.28;4966615;28;20584;-85
2022/01/07 00:24:35;;;;;;;23.97;15.17;;;;;;;4.85;86.86;96982.91;4971421;28;20226;-84
2022/01/07 00:27:02;;;;;;;27.13;16.23;;;;;;;4.87;87.34;96988.00;4969317;28;20262;-84
2022/01/07 00:29:49;;;;;;;26.40;16.73;;;;;;;5.11;87.08;97015.59;4969894;28;20205;-87
2022/01/07 00:32:16;;;;;;;29.50;17.87;;;;;;;5.08;86.47;97014.84;4951264;28;20205;-84
2022/01/07 00:34:43;;;;;;;29.23;17.17;;;;;;;4.83;86.93;97001.78;4947259;29;20198;-83
2022/01/07 00:37:11;;;;;;;30.77;18.63;;;;;;;5.00;87.84;97037.28;4967608;28;20254;-83
2022/01/07 00:39:39;;;;;;;31.33;17.80;;;;;;;4.92;87.45;97033.16;4967595;28;20235;-84
2022/01/07 00:42:07;;;;;;;35.13;20.97;;;;;;;4.65;87.64;97008.19;4968921;28;20197;-84
2022/01/07 00:44:34;;;;;;;30.23;19.80;;;;;;;4.71;88.58;97035.41;4947084;29;20199;-84
2022/01/07 00:47:05;;;;;;;34.53;19.53;;;;;;;4.64;88.95;97055.22;4949684;28;20246;-83
2022/01/07 00:49:32;;;;;;;29.87;19.40;;;;;;;4.48;89.61;97051.31;4951520;29;20200;-83
2022/01/07 00:52:01;;;;;;;30.57;17.63;;;;;;;4.45;88.76;97035.97;4968459;28;20191;-84
2022/01/07 00:54:28;;;;;;;30.80;17.40;;;;;;;4.16;89.83;97022.97;4971571;28;20194;-84
2022/01/07 00:56:56;;;;;;;29.60;16.57;;;;;;;4.13;90.70;97049.50;4949680;29;20194;-83
2022/01/07 00:59:23;;;;;;;29.47;16.33;;;;;;;4.20;91.17;97068.16;4963885;28;20192;-83
2022/01/07 01:01:50;;;;;;;28.37;17.17;;;;;;;4.17;90.59;97034.03;4949691;29;20202;-83
2022/01/07 01:04:41;;;;;;;28.00;16.77;;;;;;;4.18;90.00;97017.81;4965643;28;20296;-83
2022/01/07 01:07:08;;;;;;;26.37;15.23;;;;;;;4.43;90.47;97065.94;4971394;28;20689;-84
2022/01/07 01:09:35;;;;;;;25.37;14.03;;;;;;;4.44;89.83;97052.25;4970526;28;20214;-84
2022/01/07 01:12:03;;;;;;;25.03;14.07;;;;;;;4.66;89.63;97073.13;4971549;28;20194;-82
2022/01/07 01:14:31;;;;;;;25.30;14.93;;;;;;;4.81;88.76;97071.06;4949416;29;20234;-83
2022/01/07 01:16:59;;;;;;;27.17;14.80;;;;;;;4.29;87.79;96965.44;4950979;28;20193;-83
2022/01/07 01:19:30;;;;;;;26.57;16.60;;;;;;;4.86;87.50;97061.53;4970485;28;20723;-83
2022/01/07 01:21:59;;;;;;;29.00;16.80;;;;;;;4.84;87.03;97050.47;4970959;28;20197;-83
2022/01/07 01:24:26;;;;;;;26.00;15.20;;;;;;;4.79;86.43;97047.19;4970863;28;20254;-84
2022/01/07 04:19:03;;;;;;;22.20;13.73;;;;;;;4.28;84.47;97175.63;4992383;28;20229;-83
2022/01/07 04:21:30;;;;;;;16.73;12.07;;;;;;;4.42;84.76;97195.00;4980955;28;20232;-83
2022/01/07 04:23:59;;;;;;;20.90;13.20;;;;;;;4.71;83.97;97233.75;4992251;28;20211;-83
2022/01/07 04:26:26;;;;;;;18.53;12.30;;;;;;;4.82;84.15;97234.38;4995400;28;20581;-83
2022/01/07 04:28:53;;;;;;;20.53;12.00;;;;;;;4.63;83.36;97198.88;4991488;28;20208;-85
2022/01/07 04:31:20;;;;;;;21.23;12.77;;;;;;;4.53;82.77;97164.88;4992946;28;20273;-83
2022/01/07 04:33:47;;;;;;;20.37;12.50;;;;;;;4.71;83.90;97245.72;4998869;28;20729;-83
2022/01/07 04:36:14;;;;;;;21.33;12.40;;;;;;;4.63;83.96;97245.03;5011649;28;20189;-83
2022/01/07 04:38:41;;;;;;;23.30;11.63;;;;;;;4.38;83.78;97201.06;4976992;28;20287;-83
2022/01/07 04:41:08;;;;;;;17.37;11.73;;;;;;;4.50;84.26;97239.28;5010486;28;20232;-83
2022/01/07 04:43:35;;;;;;;25.27;14.40;;;;;;;4.03;83.71;97149.63;4993576;28;20193;-85
2022/01/07 04:46:04;;;;;;;39.53;20.80;;;;;;;4.51;83.96;97243.56;4991547;28;20275;-82
2022/01/07 04:48:31;;;;;;;33.23;18.07;;;;;;;3.99;84.86;97184.72;4974320;28;20202;-82
2022/01/07 04:50:58;;;;;;;23.47;14.13;;;;;;;4.42;84.38;97259.09;5007434;28;20196;-85
2022/01/07 04:53:26;;;;;;;19.77;12.90;;;;;;;4.38;83.75;97233.53;4993486;28;20199;-85
2022/01/07 04:55:53;;;;;;;27.63;20.07;;;;;;;4.52;83.53;97263.19;5010231;28;20335;-86
2022/01/07 04:58:20;;;;;;;22.20;14.33;;;;;;;4.36;83.95;97251.53;5002989;28;20639;-86
2022/01/07 05:00:47;;;;;;;25.60;14.13;;;;;;;4.39;83.63;97250.63;4975438;28;20245;-88
2022/01/07 05:03:15;;;;;;;21.23;15.10;;;;;;;4.24;83.60;97231.25;5003342;28;20737;-85
2022/01/07 05:05:50;;;;;;;13.23;8.53;;;;;;;4.48;82.72;97266.69;4992410;28;20695;-86
2022/01/07 05:08:18;;;;;;;16.57;9.43;;;;;;;4.12;81.86;97185.34;4956150;28;20700;-85
2022/01/07 05:10:45;;;;;;;23.30;10.13;;;;;;;4.18;82.02;97195.47;4991686;28;20189;-84
2022/01/07 05:13:13;;;;;;;17.77;10.77;;;;;;;4.76;82.24;97265.28;4973221;28;20195;-85
2022/01/07 05:15:40;;;;;;;20.10;11.90;;;;;;;4.93;82.82;97260.66;4968589;28;20192;-86
2022/01/07 05:18:13;;;;;;;21.10;10.33;;;;;;;5.04;81.76;97283.53;4969238;28;20229;-91
2022/01/07 05:20:41;;;;;;;20.53;11.43;;;;;;;4.99;80.94;97276.81;4940924;28;20225;-87
2022/01/07 05:23:09;;;;;;;23.27;11.40;;;;;;;4.85;81.55;97282.22;4962377;28;20194;-86
2022/01/07 05:25:36;;;;;;;22.53;12.50;;;;;;;4.54;81.69;97212.72;4989619;28;20199;-87
2022/01/07 05:28:05;;;;;;;21.60;11.93;;;;;;;4.68;80.35;97238.94;4975301;28;20295;-86
2022/01/07 05:30:34;;;;;;;19.37;11.27;;;;;;;4.90;80.37;97280.41;4972604;28;20205;-85
2022/01/07 05:33:01;;;;;;;23.27;11.60;;;;;;;5.00;80.14;97296.47;4945658;28;20187;-86
2022/01/07 05:35:29;;;;;;;22.17;12.97;;;;;;;5.07;79.43;97296.31;4931927;29;20194;-86
2022/01/07 05:37:56;;;;;;;19.57;11.80;;;;;;;4.92;79.77;97282.06;4966409;28;20229;-86
2022/01/07 05:40:24;;;;;;;22.90;12.07;;;;;;;4.87;79.13;97285.59;4951089;29;20222;-85
2022/01/07 05:42:51;;;;;;;20.77;11.37;;;;;;;4.43;78.99;97213.81;4966133;28;20269;-85
2022/01/07 05:45:18;;;;;;;18.93;11.17;;;;;;;4.62;78.70;97264.69;4971110;28;20200;-85
2022/01/07 05:48:25;;;;;;;19.97;10.73;;;;;;;4.92;79.29;97304.31;5114501;23;20241;-86
2022/01/07 05:51:46;;;;;;;29.23;13.67;;;;;;;4.83;78.87;97295.06;4969421;28;20209;-85
2022/01/07 05:55:06;;;;;;;23.50;12.90;;;;;;;4.40;79.18;97222.41;4968485;28;20199;-85
2022/01/07 05:58:27;;;;;;;23.10;13.43;;;;;;;4.82;79.63;97306.19;4970296;28;20198;-85
2022/01/07 06:01:48;;;;;;;26.67;13.50;;;;;;;4.92;78.11;97306.88;4970001;28;20308;-85
2022/01/07 06:05:09;;;;;;;18.53;10.87;;;;;;;4.79;78.68;97283.19;4952453;28;20288;-86
2022/01/07 06:08:30;;;;;;;29.07;14.67;;;;;;;4.70;78.34;97277.38;4953284;28;20187;-86
2022/01/07 06:11:50;;;;;;;19.80;11.10;;;;;;;4.90;77.99;97306.91;4969796;28;20191;-88
2022/01/07 06:15:11;;;;;;;17.50;11.33;;;;;;;4.81;78.56;97309.66;4970614;28;20197;-85
2022/01/07 06:18:31;;;;;;;31.23;14.67;;;;;;;4.71;78.88;97292.75;4955556;28;20340;-84
2022/01/07 06:21:52;;;;;;;23.23;12.70;;;;;;;4.88;79.17;97313.78;4936690;28;20232;-85
2022/01/07 06:25:13;;;;;;;21.13;11.97;;;;;;;4.61;78.35;97263.03;4967412;28;20193;-85
2022/01/07 06:28:33;;;;;;;18.30;10.70;;;;;;;5.00;76.75;97322.97;4968810;28;20225;-84
2022/01/07 06:31:55;;;;;;;21.80;12.30;;;;;;;4.99;78.03;97325.59;4953793;28;20296;-84
2022/01/07 06:35:17;;;;;;;19.57;13.13;;;;;;;4.93;77.44;97311.13;4936453;28;20288;-85
2022/01/07 06:38:39;;;;;;;22.90;13.90;;;;;;;5.03;77.28;97334.91;4966578;28;20218;-84
2022/01/07 06:42:01;;;;;;;30.27;19.20;;;;;;;5.27;77.29;97334.41;4967996;28;20233;-84
2022/01/07 06:45:22;;;;;;;31.17;17.73;;;;;;;5.30;77.11;97335.19;4967799;28;20199;-85
2022/01/07 06:48:45;;;;;;;40.73;24.63;;;;;;;5.21;78.44;97316.56;4968035;28;20237;-84
2022/01/07 06:52:07;;;;;;;30.47;17.40;;;;;;;5.25;77.99;97333.59;4935973;28;20194;-84
2022/01/07 06:55:27;;;;;;;57.23;29.77;;;;;;;5.24;78.18;97309.66;4952133;28;20669;-84
2022/01/07 06:58:49;;;;;;;43.47;24.87;;;;;;;5.21;77.44;97335.41;4953339;28;20209;-83
2022/01/07 07:02:09;;;;;;;28.47;17.13;;;;;;;5.31;77.58;97341.19;4967929;28;20229;-84
2022/01/07 07:05:32;;;;;;;26.60;16.77;;;;;;;5.45;77.51;97321.19;4952773;28;20192;-85
2022/01/07 07:08:55;;;;;;;29.00;18.17;;;;;;;5.79;76.26;97348.69;4950530;28;20200;-84
2022/01/07 07:12:16;;;;;;;27.27;16.20;;;;;;;5.94;74.85;97344.97;4967470;28;20256;-83
2022/01/07 07:15:37;;;;;;;24.47;13.20;;;;;;;6.01;73.75;97353.38;4968217;28;20199;-83
2022/01/07 07:18:59;;;;;;;21.20;12.53;;;;;;;6.06;73.31;97349.81;4937739;28;20227;-84
2022/01/07 07:22:20;;;;;;;24.50;11.77;;;;;;;5.89;72.73;97327.97;4967269;28;20227;-85
2022/01/07 07:25:42;;;;;;;18.37;10.00;;;;;;;5.91;73.28;97360.47;4953943;28;20199;-86
2022/01/07 07:29:03;;;;;;;16.10;10.10;;;;;;;5.85;72.47;97357.19;4954644;28;20226;-85
2022/01/07 07:32:28;;;;;;;14.77;8.90;;;;;;;5.92;72.42;97357.00;4968193;28;20195;-85
2022/01/07 07:39:28;;;;;;;25.00;12.47;;;;;;;5.90;73.48;97348.47;4948949;28;20205;-85
2022/01/07 07:42:49;;;;;;;24.07;14.47;;;;;;;5.88;73.93;97357.09;4966919;28;20358;-85
2022/01/07 07:46:10;;;;;;;22.50;13.57;;;;;;;5.88;72.72;97355.38;4952773;28;20198;-86
2022/01/07 07:49:33;;;;;;;21.10;10.73;;;;;;;5.59;73.77;97329.44;4936418;28;20240;-85
2022/01/07 07:52:55;;;;;;;23.00;11.37;;;;;;;5.82;72.51;97349.50;4966354;28;20226;-84
2022/01/07 07:56:16;;;;;;;16.40;10.53;;;;;;;5.70;73.31;97358.31;4967145;28;20196;-84
2022/01/07 07:59:37;;;;;;;30.17;18.50;;;;;;;5.21;74.86;97352.50;4971192;28;20214;-85
2022/01/07 08:02:57;;;;;;;29.53;18.30;;;;;;;5.25;74.93;97355.00;4940525;28;20339;-85
2022/01/07 08:06:18;;;;;;;25.17;14.63;;;;;;;4.91;74.66;97282.94;4940562;28;20281;-84
2022/01/07 08:09:40;;;;;;;24.97;13.37;;;;;;;5.48;74.55;97368.19;4971239;28;20727;-84
2022/01/07 08:16:27;;;;;;;30.57;15.87;;;;;;;5.61;73.36;97373.91;4971738;28;20188;-87
2022/01/07 08:19:48;;;;;;;27.83;16.73;;;;;;;5.32;73.91;97369.38;4976864;28;20198;-84
2022/01/07 08:23:10;;;;;;;26.93;15.20;;;;;;;5.51;72.96;97373.28;4932690;28;20772;-85
2022/01/07 08:26:31;;;;;;;23.20;14.70;;;;;;;5.43;72.98;97369.19;4972260;28;20849;-84
2022/01/07 08:29:53;;;;;;;28.20;14.60;;;;;;;5.66;71.97;97362.69;4957155;28;20215;-83
2022/01/07 08:36:54;;;;;;;18.57;12.43;;;;;;;5.78;72.13;97366.72;4953941;28;20319;-84
2022/01/07 08:40:16;;;;;;;24.47;14.60;;;;;;;5.92;71.60;97376.72;4970113;28;20194;-85
2022/01/07 08:43:37;;;;;;;23.43;14.50;;;;;;;5.78;71.47;97371.84;4938654;28;20218;-85
2022/01/07 08:46:58;;;;;;;25.07;15.57;;;;;;;5.77;nan;97354.72;4956333;28;20696;-86
2022/01/07 08:50:18;;;;;;;20.80;12.33;;;;;;;5.50;70.97;97278.28;4939904;28;20191;-85
2022/01/07 08:53:39;;;;;;;19.57;11.37;;;;;;;6.19;70.95;97368.38;4970798;28;20623;-88
2022/01/07 08:56:59;;;;;;;22.17;12.73;;;;;;;6.19;71.17;97365.81;4952977;28;20210;-86
2022/01/07 09:00:24;;;;;;;21.83;13.30;;;;;;;6.09;70.74;97341.19;4970756;28;20248;-84
2022/01/07 09:03:44;;;;;;;16.10;10.63;;;;;;;6.31;70.51;97362.94;4955606;28;20191;-84
2022/01/07 09:07:05;;;;;;;17.93;8.27;;;;;;;6.27;69.65;97336.47;4970754;28;20210;-85
2022/01/07 09:10:26;;;;;;;21.27;11.53;;;;;;;6.25;70.01;97317.66;4954320;28;20698;-85
2022/01/07 09:13:48;;;;;;;22.30;11.80;;;;;;;6.46;69.52;97360.84;4954807;28;20202;-87
2022/01/07 09:17:10;;;;;;;15.17;9.93;;;;;;;6.40;69.44;97358.44;4956107;28;20253;-85
2022/01/07 09:20:32;;;;;;;16.87;10.57;;;;;;;6.35;70.83;97360.25;4953402;28;20612;-84
2022/01/07 09:23:52;;;;;;;16.13;10.37;;;;;;;6.44;69.54;97344.63;4922230;28;20192;-86
2022/01/07 09:27:13;;;;;;;14.30;9.43;;;;;;;6.50;69.22;97352.19;4951633;28;20266;-86
2022/01/07 09:30:33;;;;;;;20.57;10.13;;;;;;;6.47;71.32;97349.66;4970456;28;20729;-86
2022/01/07 09:33:54;;;;;;;13.53;8.70;;;;;;;6.43;69.77;97345.50;4924235;28;20318;-85
2022/01/07 09:37:15;;;;;;;13.57;8.67;;;;;;;6.45;70.06;97363.47;4939246;28;20677;-87
2022/01/07 09:40:35;;;;;;;15.40;8.63;;;;;;;6.59;69.34;97358.84;4937044;28;20642;-87
2022/01/07 09:43:57;;;;;;;12.97;7.80;;;;;;;6.63;68.74;97359.59;4972693;28;20216;-87
2022/01/07 09:47:22;;;;;;;15.17;9.87;;;;;;;6.60;68.69;97360.50;4970944;28;20199;-86
2022/01/07 09:50:43;;;;;;;14.77;9.80;;;;;;;6.51;69.41;97355.59;4953323;28;20203;-86
2022/01/07 09:54:12;;;;;;;12.83;9.33;;;;;;;6.59;69.87;97351.94;4955943;28;20586;-87
2022/01/07 09:57:32;;;;;;;15.03;9.87;;;;;;;6.57;71.04;97340.00;4952721;28;20259;-85
2022/01/07 10:00:57;;;;;;;19.47;11.17;;;;;;;6.79;70.35;97354.00;4971710;28;20196;-86
2022/01/07 10:04:18;;;;;;;13.00;8.10;;;;;;;6.64;70.52;97354.41;4956108;28;20203;-88
2022/01/07 10:07:47;;;;;;;14.43;8.57;;;;;;;6.71;70.44;97352.53;4954239;28;20279;-84
2022/01/07 10:11:07;;;;;;;11.73;7.67;;;;;;;6.70;71.53;97353.41;4952165;28;20210;-87
2022/01/07 10:14:30;;;;;;;19.70;9.57;;;;;;;6.49;71.91;97331.66;4951851;28;20200;-90
2022/01/07 10:18:00;;;;;;;16.33;8.33;;;;;;;6.51;72.35;97343.56;4955411;28;20711;-87
2022/01/07 10:21:22;;;;;;;17.20;9.60;;;;;;;6.57;73.04;97345.97;4952369;28;20307;-87
2022/01/07 10:24:43;;;;;;;16.07;9.80;;;;;;;6.73;73.20;97345.59;4970221;28;20213;-89
2022/01/07 10:28:21;;;;;;;15.83;10.33;;;;;;;6.69;73.40;97349.13;4951980;28;20200;-85
2022/01/07 10:31:48;;;;;;;22.40;12.27;;;;;;;6.76;73.21;97341.22;4968490;28;20228;-87
2022/01/07 10:35:07;;;;;;;19.93;9.83;;;;;;;6.55;73.33;97311.72;4952564;28;20195;-84
2022/01/07 10:38:46;;;;;;;16.57;9.40;;;;;;;6.78;72.15;97343.78;4937628;28;20192;-85
2022/01/07 10:42:20;;;;;;;24.73;11.10;;;;;;;6.77;72.61;97340.34;4950331;28;20228;-85
2022/01/07 10:45:47;;;;;;;18.87;12.07;;;;;;;6.39;72.06;97292.44;4933571;28;20236;-84
2022/01/07 10:49:14;;;;;;;17.33;9.87;;;;;;;6.55;71.54;97296.28;4934729;28;20228;-87
2022/01/07 10:52:41;;;;;;;19.43;9.30;;;;;;;6.88;70.98;97352.94;4952165;28;20218;-86
2022/01/07 10:56:18;;;;;;;23.23;12.57;;;;;;;6.82;71.54;97329.94;4968547;28;20447;-85
2022/01/07 10:59:39;;;;;;;15.47;10.03;;;;;;;6.78;70.63;97343.78;4953298;28;20198;-86
2022/01/07 11:03:01;;;;;;;17.20;9.97;;;;;;;6.58;71.54;97337.41;4942060;28;20256;-87
2022/01/07 11:06:22;;;;;;;17.97;11.47;;;;;;;6.75;72.13;97342.13;4950142;28;20223;-84
2022/01/07 11:09:43;;;;;;;23.97;13.53;;;;;;;6.81;72.31;97341.09;4968816;28;20195;-85
2022/01/07 11:13:05;;;;;;;34.23;19.17;;;;;;;6.78;71.98;97334.28;4968604;28;20286;-90
2022/01/07 11:16:26;;;;;;;28.53;15.13;;;;;;;6.79;71.49;97333.44;4952912;28;20192;-86
2022/01/07 11:19:48;;;;;;;21.67;12.13;;;;;;;6.84;72.60;97341.03;4949602;28;20303;-86
2022/01/07 11:23:10;;;;;;;28.93;15.17;;;;;;;6.89;71.46;97326.28;4971104;28;20255;-85
2022/01/07 11:26:40;;;;;;;23.83;14.20;;;;;;;6.82;70.92;97291.31;4937684;28;20347;-86
2022/01/07 11:30:04;;;;;;;28.17;14.97;;;;;;;6.68;71.71;97281.38;4967619;28;20199;-84
2022/01/07 11:33:36;;;;;;;33.27;18.20;;;;;;;7.04;71.50;97347.34;4949299;28;20198;-85
2022/01/07 11:37:12;;;;;;;29.37;17.73;;;;;;;7.12;70.24;97336.81;4921744;28;20246;-86
2022/01/07 11:40:28;;;;;;;24.30;14.70;;;;;;;6.67;70.66;97266.00;4937591;28;20188;-85
2022/01/07 11:43:41;;;;;;;32.00;13.80;;;;;;;7.24;70.63;97339.06;4968629;28;20197;-85
2022/01/07 11:47:07;;;;;;;15.90;9.87;;;;;;;7.22;69.55;97348.56;4926332;29;20220;-86
2022/01/07 11:50:29;;;;;;;27.13;15.13;;;;;;;7.24;69.41;97349.34;4896327;29;20676;-85
2022/01/07 11:53:41;;;;;;;18.43;10.40;;;;;;;7.17;70.31;97350.44;4910787;29;20190;-88
2022/01/07 11:57:03;;;;;;;31.30;14.57;;;;;;;7.26;69.12;97355.31;4928286;29;20216;-87
2022/01/07 12:00:24;;;;;;;21.27;11.60;;;;;;;7.21;69.66;97349.47;4912047;29;20209;-85
2022/01/07 12:03:50;;;;;;;22.33;11.93;;;;;;;7.26;69.30;97351.00;4926243;29;20198;-86
2022/01/07 12:06:38;;;;;;;21.57;12.00;;;;;;;7.38;70.12;97342.09;4913400;29;20804;-84
2022/01/07 12:09:59;;;;;;;19.27;11.53;;;;;;;7.29;70.57;97332.06;4928704;29;20586;-87
2022/01/07 12:13:25;;;;;;;15.97;9.80;;;;;;;7.31;69.06;97340.59;4927880;29;20212;-87
2022/01/07 12:16:46;;;;;;;21.13;9.50;;;;;;;7.22;68.94;97331.38;4929855;28;20260;-87
2022/01/07 12:19:38;;;;;;;16.17;9.23;;;;;;;7.09;69.42;97342.06;4968777;28;20806;-85
2022/01/07 12:23:00;;;;;;;13.40;8.53;;;;;;;7.05;67.29;97340.44;4950441;28;20727;-86
2022/01/07 12:26:21;;;;;;;21.17;11.80;;;;;;;7.16;68.01;97341.00;4921570;28;20748;-84
2022/01/07 12:29:43;;;;;;;26.57;11.33;;;;;;;7.11;68.04;97338.53;4966432;28;20671;-86
2022/01/07 12:33:10;;;;;;;10.90;6.47;;;;;;;6.69;68.11;97324.25;4936911;28;20671;-85
2022/01/07 12:36:30;;;;;;;13.03;8.37;;;;;;;6.70;68.62;97351.66;4950929;28;20630;-84
2022/01/07 12:39:51;;;;;;;13.10;7.73;;;;;;;6.42;68.40;97274.38;4967502;28;20625;-85
2022/01/07 12:43:12;;;;;;;11.03;7.93;;;;;;;6.88;69.31;97345.22;4951959;28;20224;-84
2022/01/07 12:46:38;;;;;;;11.47;7.17;;;;;;;6.57;67.95;97294.53;4937777;28;20189;-83
2022/01/07 12:49:59;;;;;;;10.17;6.67;;;;;;;7.05;68.56;97341.28;4970114;28;20235;-86
2022/01/07 12:53:20;;;;;;;16.83;7.80;;;;;;;7.07;68.21;97349.81;4952864;28;20651;-84
2022/01/07 12:56:39;;;;;;;13.27;8.37;;;;;;;6.86;69.41;97344.41;4937273;28;20203;-85
2022/01/07 13:00:00;;;;;;;14.77;9.53;;;;;;;6.75;71.15;97326.66;4969016;28;20200;-86
2022/01/07 13:03:24;;;;;;;19.70;10.13;;;;;;;6.94;70.69;97352.78;4951739;28;20216;-86
2022/01/07 13:06:45;;;;;;;17.17;10.10;;;;;;;6.96;71.80;97348.44;4970285;28;20188;-85
2022/01/07 13:10:07;;;;;;;13.57;8.60;;;;;;;7.03;70.99;97349.94;4970416;28;20227;-85
2022/01/07 13:13:22;;;;;;;11.97;8.03;;;;;;;6.92;71.98;97357.97;4935641;28;20201;-84
2022/01/07 13:16:43;;;;;;;12.33;7.57;;;;;;;6.92;71.22;97352.81;4950571;28;20196;-86
2022/01/07 13:20:05;;;;;;;20.20;9.00;;;;;;;7.02;70.53;97356.84;4952293;28;20201;-86
2022/01/07 13:23:29;;;;;;;15.43;7.93;;;;;;;7.06;68.56;97355.88;4970389;28;20662;-85
2022/01/07 13:26:54;;;;;;;12.63;6.80;;;;;;;6.96;68.21;97358.72;4970492;28;20192;-85
2022/01/07 13:30:15;;;;;;;12.93;7.53;;;;;;;7.06;68.42;97357.59;4922520;28;20674;-86
2022/01/07 13:33:39;;;;;;;11.50;6.53;;;;;;;6.93;66.31;97344.19;4951901;28;20200;-85
2022/01/07 13:37:00;;;;;;;11.67;7.83;;;;;;;6.92;68.07;97363.13;4952883;28;20271;-85
2022/01/07 13:40:29;;;;;;;10.27;6.47;;;;;;;7.03;66.92;97370.53;4955573;28;20684;-86
2022/01/07 13:43:54;;;;;;;12.53;7.17;;;;;;;7.12;67.64;97363.44;4967746;28;20203;-84
2022/01/07 13:47:18;;;;;;;17.13;7.97;;;;;;;6.55;67.12;97270.56;4967132;28;20204;-85
2022/01/07 13:50:48;;;;;;;15.47;8.30;;;;;;;7.10;67.46;97361.78;4969085;28;20574;-86
2022/01/07 13:54:03;;;;;;;13.90;8.17;;;;;;;6.92;66.79;97333.94;4952386;28;20222;-85
2022/01/07 13:57:19;;;;;;;19.00;8.90;;;;;;;7.16;67.08;97367.59;4970007;28;20228;-86
2022/01/07 14:00:40;;;;;;;13.80;8.03;;;;;;;7.13;67.02;97364.28;4970767;28;20271;-83
2022/01/07 14:04:06;;;;;;;15.67;9.47;;;;;;;7.22;67.17;97380.31;4935283;28;20193;-85
2022/01/07 14:07:25;;;;;;;24.93;10.57;;;;;;;7.19;67.20;97382.13;4951449;28;20197;-86
2022/01/07 14:10:49;;;;;;;15.73;9.60;;;;;;;7.20;68.15;97376.94;4951601;28;20264;-84
2022/01/07 14:14:10;;;;;;;17.20;9.40;;;;;;;7.09;68.13;97386.66;4967604;28;20193;-85
2022/01/07 14:17:33;;;;;;;16.43;9.63;;;;;;;5.92;67.79;97225.94;4968953;28;20398;-90
2022/01/07 14:21:06;;;;;;;16.90;8.63;;;;;;;6.84;68.10;97370.16;4954541;28;20641;-91
2022/01/07 14:24:28;;;;;;;13.40;8.07;;;;;;;6.96;67.68;97394.75;4956068;28;20207;-85
2022/01/07 14:27:49;;;;;;;18.97;10.20;;;;;;;6.85;69.35;97391.63;4941846;28;20200;-86
2022/01/07 14:31:12;;;;;;;22.73;10.07;;;;;;;6.77;69.00;97398.69;4951665;28;20189;-86
2022/01/07 14:34:33;;;;;;;14.90;9.80;;;;;;;6.57;69.01;97396.63;4936908;28;20196;-86
2022/01/07 14:37:55;;;;;;;20.63;11.93;;;;;;;6.59;70.65;97395.69;4954722;28;20195;-86
2022/01/07 14:41:17;;;;;;;19.43;10.83;;;;;;;6.68;69.08;97404.91;4952099;28;20668;-85
2022/01/07 14:44:42;;;;;;;23.80;13.40;;;;;;;6.85;70.12;97402.75;4934067;28;20204;-84
2022/01/07 14:48:02;;;;;;;18.23;10.20;;;;;;;6.94;68.83;97401.69;4934632;28;20596;-86
2022/01/07 14:51:23;;;;;;;17.30;10.17;;;;;;;6.65;68.63;97344.97;4970108;28;20200;-87
2022/01/07 14:54:45;;;;;;;22.50;10.70;;;;;;;6.86;69.42;97406.19;4955097;28;20250;-86
2022/01/07 14:58:06;;;;;;;16.03;9.20;;;;;;;6.85;69.05;97402.75;4921277;28;20757;-85
2022/01/07 15:01:27;;;;;;;15.53;10.00;;;;;;;6.80;69.14;97404.59;4967404;28;20285;-86
2022/01/07 15:04:47;;;;;;;17.53;8.50;;;;;;;6.28;69.00;97342.47;4966531;28;20272;-85
2022/01/07 15:08:08;;;;;;;15.63;9.07;;;;;;;6.63;70.50;97429.06;4967119;28;20204;-87
2022/01/07 15:11:32;;;;;;;20.90;10.73;;;;;;;6.71;70.25;97419.44;4937014;28;20207;-83
2022/01/07 15:14:54;;;;;;;20.33;11.67;;;;;;;6.69;70.14;97429.75;4949819;28;20188;-88
2022/01/07 15:18:15;;;;;;;25.50;11.47;;;;;;;6.70;70.56;97433.19;4951701;28;20722;-86
2022/01/07 15:21:37;;;;;;;27.23;11.97;;;;;;;6.62;70.51;97429.94;4954796;28;20237;-86
2022/01/07 15:24:57;;;;;;;16.40;9.87;;;;;;;6.70;69.46;97431.44;4933193;29;20688;-86
2022/01/07 15:28:18;;;;;;;21.90;12.67;;;;;;;6.75;69.80;97431.34;4934355;28;20587;-87
2022/01/07 15:30:59;;;;;;;26.30;12.47;;;;;;;6.28;69.36;97365.59;4951994;28;20287;-86
2022/01/07 15:33:26;;;;;;;21.53;13.43;;;;;;;6.23;69.78;97355.41;4973443;28;20280;-86
2022/01/07 15:35:56;;;;;;;20.70;11.87;;;;;;;6.68;68.38;97440.09;4976295;28;20218;-87
2022/01/07 15:38:23;;;;;;;25.27;13.50;;;;;;;5.85;69.71;97339.19;4964313;28;20189;-86
2022/01/07 15:40:52;;;;;;;17.40;12.53;;;;;;;5.95;69.93;97359.53;4961341;28;20235;-88
2022/01/07 15:43:23;;;;;;;23.70;13.20;;;;;;;6.43;69.85;97442.38;4962606;28;20200;-88
2022/01/07 15:45:51;;;;;;;20.67;11.93;;;;;;;5.97;69.12;97362.91;4945947;28;20210;-86
2022/01/07 15:48:18;;;;;;;22.77;14.00;;;;;;;6.41;69.38;97431.28;4944788;28;20244;-87
2022/01/07 15:50:46;;;;;;;27.73;13.77;;;;;;;5.91;69.26;97357.03;4955464;28;20220;-87
2022/01/07 15:53:16;;;;;;;25.60;11.43;;;;;;;6.46;69.04;97461.19;4983347;28;20219;-87
2022/01/07 15:55:45;;;;;;;26.90;13.67;;;;;;;6.05;69.75;97414.13;4946342;28;20192;-87
2022/01/07 15:58:12;;;;;;;24.57;13.83;;;;;;;6.36;69.88;97440.84;4949416;28;20212;-88
2022/01/07 16:00:40;;;;;;;24.37;14.57;;;;;;;6.47;69.50;97469.75;4963285;28;20191;-88
2022/01/07 16:03:08;;;;;;;23.17;13.47;;;;;;;6.05;69.06;97399.56;4940068;28;20295;-86
2022/01/07 16:05:37;;;;;;;25.30;15.13;;;;;;;6.25;69.91;97453.94;4953823;28;20219;-87
2022/01/07 16:08:05;;;;;;;29.50;15.47;;;;;;;6.26;71.27;97436.78;4955200;28;20193;-86
2022/01/07 16:10:32;;;;;;;28.80;15.63;;;;;;;6.26;69.89;97427.38;4951411;28;20725;-86
2022/01/07 16:13:01;;;;;;;25.37;12.50;;;;;;;6.11;69.20;97437.13;4953127;28;20334;-87
2022/01/07 16:15:28;;;;;;;16.97;10.50;;;;;;;6.11;69.73;97430.25;4952649;28;20670;-89
2022/01/07 16:17:58;;;;;;;17.50;10.67;;;;;;;5.93;69.16;97419.53;4970666;28;20187;-87
2022/01/07 16:20:26;;;;;;;15.20;9.03;;;;;;;6.02;69.68;97457.91;4940525;28;20672;-87
2022/01/07 16:22:54;;;;;;;17.23;11.17;;;;;;;6.20;70.19;97486.63;4922822;28;20246;-87
2022/01/07 16:25:24;;;;;;;19.33;10.27;;;;;;;6.01;69.88;97457.06;4956318;28;20215;-88
2022/01/07 16:27:52;;;;;;;22.27;13.00;;;;;;;5.58;70.29;97410.81;4954807;28;20199;-87
2022/01/07 16:30:20;;;;;;;23.77;16.00;;;;;;;5.94;71.23;97477.75;4940607;28;20196;-87
2022/01/07 16:32:49;;;;;;;33.27;17.77;;;;;;;5.95;72.97;97482.03;4959277;28;20247;-89
2022/01/07 16:35:20;;;;;;;42.67;23.23;;;;;;;5.71;71.91;97448.22;4924795;28;20712;-86
2022/01/07 16:37:48;;;;;;;47.67;23.63;;;;;;;5.71;72.52;97452.50;4924142;28;20552;-87
2022/01/07 16:40:17;;;;;;;45.53;24.13;;;;;;;5.56;73.38;97411.72;4972101;28;20212;-86
2022/01/07 16:42:44;;;;;;;45.13;26.73;;;;;;;5.30;73.93;97413.94;4940892;28;20218;-88
2022/01/07 16:45:14;;;;;;;43.77;23.37;;;;;;;5.80;74.29;97480.59;4954965;28;20223;-87
2022/01/07 16:47:41;;;;;;;31.43;18.60;;;;;;;5.29;73.80;97389.16;4955228;28;20631;-87
2022/01/07 16:50:10;;;;;;;29.23;17.70;;;;;;;5.42;73.36;97395.75;4955973;28;20242;-91
2022/01/07 16:52:38;;;;;;;37.23;20.00;;;;;;;5.78;74.16;97448.94;4953961;28;20187;-88
2022/01/07 16:55:08;;;;;;;38.33;22.20;;;;;;;6.00;73.55;97491.34;4940781;28;20201;-89
2022/01/07 16:57:36;;;;;;;38.83;21.10;;;;;;;5.89;73.13;97457.31;4937830;28;20184;-88
2022/01/07 17:00:04;;;;;;;41.20;23.10;;;;;;;5.97;73.71;97488.00;4956521;28;20202;-88
2022/01/07 17:02:33;;;;;;;28.53;17.60;;;;;;;6.00;73.22;97486.19;4974677;28;20282;-87
2022/01/07 17:05:06;;;;;;;25.57;17.17;;;;;;;5.73;74.93;97468.72;4975277;28;20198;-87
2022/01/07 17:07:38;;;;;;;29.17;16.87;;;;;;;5.66;74.25;97472.31;4958878;28;20253;-89